Time;durP1;ratioP1;P1;durP2;ratioP2;P2;SDS_P1;SDS_P2;PMS_P1;PMS_P2;Temp;Humidity;BMP_temperature;BMP_pressure;BME280_temperature;BME280_humidity;BME280_pressure;Samples;Min_cycle;Max_cycle;Signal;HPM_P1;HPM_P2
2021/12/16 00:01:41;;;;;;;26.57;16.33;;;;;;;2.44;100.00;97847.19;4987276;28;20042;-76
2021/12/16 00:08:24;;;;;;;26.93;17.03;;;;;;;2.48;100.00;97843.53;5005860;28;20032;-76
2021/12/16 00:11:12;;;;;;;24.50;15.57;;;;;;;2.49;100.00;97853.03;5005767;28;20503;-76
2021/12/16 00:30:14;;;;;;;26.83;17.50;;;;;;;2.51;100.00;97848.59;5014240;28;20136;-77
2021/12/16 00:32:47;;;;;;;25.40;16.40;;;;;;;2.45;100.00;97844.53;5009393;28;20033;-76
2021/12/16 00:35:16;;;;;;;24.75;16.30;;;;;;;2.41;100.00;97848.16;5019846;28;20037;-76
2021/12/16 00:37:42;;;;;;;27.17;16.87;;;;;;;2.43;100.00;97840.31;4986876;28;20387;-76
2021/12/16 00:40:11;;;;;;;27.40;16.60;;;;;;;2.42;100.00;97839.47;4992782;28;20033;-76
2021/12/16 00:48:00;;;;;;;32.10;18.93;;;;;;;2.34;100.00;97831.19;5008116;28;20133;-76
2021/12/16 00:55:57;;;;;;;35.10;19.93;;;;;;;2.30;100.00;97827.03;5009623;28;20121;-76
2021/12/16 00:58:28;;;;;;;36.47;21.37;;;;;;;2.29;100.00;97823.63;5016926;28;20068;-76
2021/12/16 01:01:08;;;;;;;31.57;19.40;;;;;;;2.29;100.00;97822.78;5010254;28;20021;-76
2021/12/16 01:03:45;;;;;;;37.73;19.97;;;;;;;2.27;100.00;97834.97;5011374;28;20120;-76
2021/12/16 01:06:44;;;;;;;35.30;21.17;;;;;;;2.26;100.00;97833.28;4989534;28;20686;-76
2021/12/16 01:33:28;;;;;;;36.63;20.03;;;;;;;2.25;100.00;97847.19;4972752;28;20115;-76
2021/12/16 01:35:06;;;;;;;39.60;21.03;;;;;;;2.19;100.00;97865.63;5028543;28;20440;-76
2021/12/16 01:51:15;;;;;;;40.10;22.27;;;;;;;2.09;100.00;97868.63;5028328;28;20037;-76
2021/12/16 01:56:33;;;;;;;36.33;20.30;;;;;;;2.20;100.00;97859.50;5007886;28;20081;-76
2021/12/16 01:59:03;;;;;;;37.95;20.75;;;;;;;2.15;100.00;97859.72;5033196;28;20033;-77
2021/12/16 02:01:33;;;;;;;32.07;19.57;;;;;;;2.16;100.00;97857.97;5008502;28;20124;-76
2021/12/16 02:04:13;;;;;;;34.83;21.50;;;;;;;2.11;100.00;97853.84;5003422;28;20029;-76
2021/12/16 02:09:40;;;;;;;40.15;21.40;;;;;;;2.11;100.00;97860.75;5026623;28;20033;-76
2021/12/16 02:12:33;;;;;;;34.95;20.15;;;;;;;2.10;100.00;97857.31;5008547;28;20072;-76
2021/12/16 02:29:10;;;;;;;38.07;19.67;;;;;;;2.05;100.00;97851.50;5006047;28;20037;-76
2021/12/16 02:31:57;;;;;;;39.83;20.37;;;;;;;2.08;100.00;97851.38;5006509;28;20387;-76
2021/12/16 02:34:45;;;;;;;33.83;19.40;;;;;;;2.06;100.00;97853.19;5010443;28;20029;-76
2021/12/16 02:37:17;;;;;;;34.80;18.13;;;;;;;2.09;100.00;97852.22;5006640;28;20084;-76
2021/12/16 02:39:46;;;;;;;34.07;17.67;;;;;;;2.11;100.00;97833.06;4986131;28;20025;-76
2021/12/16 02:42:18;;;;;;;40.40;20.53;;;;;;;2.09;100.00;97840.06;4990365;28;20040;-76
2021/12/16 02:50:19;;;;;;;34.23;17.57;;;;;;;2.06;100.00;97842.78;5022168;28;20041;-76
2021/12/16 02:52:45;;;;;;;32.43;17.17;;;;;;;2.08;100.00;97833.19;4986197;28;20025;-76
2021/12/16 02:55:13;;;;;;;31.93;17.10;;;;;;;2.05;100.00;97828.16;5019920;28;20067;-75
2021/12/16 02:57:59;;;;;;;28.80;16.50;;;;;;;2.05;100.00;97820.38;4986383;28;20033;-76
2021/12/16 03:00:32;;;;;;;30.60;16.73;;;;;;;1.98;100.00;97821.53;5009632;28;20041;-76
2021/12/16 03:02:59;;;;;;;26.10;14.07;;;;;;;1.91;100.00;97827.88;5011710;28;20766;-76
2021/12/16 03:05:25;;;;;;;29.07;15.57;;;;;;;1.85;100.00;97823.00;5008787;28;20044;-77
2021/12/16 03:07:52;;;;;;;35.23;17.73;;;;;;;1.85;100.00;97829.00;5023693;28;20117;-76
2021/12/16 03:13:21;;;;;;;33.60;16.07;;;;;;;1.72;100.00;97829.59;5010246;28;20513;-76
2021/12/16 03:21:16;;;;;;;27.60;16.63;;;;;;;1.71;100.00;97846.94;5020685;28;20109;-76
2021/12/16 03:24:00;;;;;;;30.07;16.70;;;;;;;1.71;100.00;97856.44;5005981;28;20025;-76
2021/12/16 03:35:25;;;;;;;31.27;15.27;;;;;;;1.74;100.00;97857.13;5025882;28;20440;-76
2021/12/16 03:37:46;;;;;;;31.73;15.53;;;;;;;1.76;100.00;97857.09;5023202;28;20098;-77
2021/12/16 03:40:14;;;;;;;30.00;14.80;;;;;;;1.80;100.00;97858.63;5012045;28;20033;-77
2021/12/16 03:42:50;;;;;;;28.73;14.17;;;;;;;1.74;100.00;97857.13;4992410;28;20025;-76
2021/12/16 03:49:10;;;;;;;26.53;14.47;;;;;;;1.76;100.00;97864.88;5014684;28;20113;-76
2021/12/16 03:51:44;;;;;;;29.45;14.38;;;;;;;1.69;100.00;97866.03;5015264;28;20037;-76
2021/12/16 03:54:13;;;;;;;33.50;19.93;;;;;;;1.70;100.00;97865.97;5005637;28;20092;-76
2021/12/16 03:56:44;;;;;;;24.90;13.93;;;;;;;1.73;100.00;97865.00;5003235;28;20041;-76
2021/12/16 03:59:16;;;;;;;24.53;13.57;;;;;;;1.70;100.00;97852.16;5001876;28;20446;-76
2021/12/16 04:02:12;;;;;;;22.07;10.40;;;;;;;1.71;100.00;97857.31;4994275;28;20033;-76
2021/12/16 04:04:43;;;;;;;29.23;15.03;;;;;;;1.68;100.00;97869.53;5007992;28;20460;-77
2021/12/16 04:07:10;;;;;;;28.17;14.73;;;;;;;1.71;100.00;97861.63;4995191;28;20033;-76
2021/12/16 04:10:17;;;;;;;27.40;13.47;;;;;;;1.79;100.00;97875.97;4999117;28;20041;-77
2021/12/16 04:12:43;;;;;;;30.57;15.93;;;;;;;1.75;100.00;97874.41;5014656;28;20029;-77
2021/12/16 04:15:11;;;;;;;30.90;14.57;;;;;;;1.73;100.00;97871.03;5013160;28;20682;-77
2021/12/16 04:17:46;;;;;;;27.53;14.73;;;;;;;1.74;100.00;97882.25;5002139;28;20057;-77
2021/12/16 04:20:14;;;;;;;28.87;14.13;;;;;;;1.79;100.00;97888.09;5004716;28;20026;-76
2021/12/16 04:22:43;;;;;;;28.27;13.90;;;;;;;1.73;100.00;97888.34;5009143;28;20026;-76
2021/12/16 04:25:17;;;;;;;30.23;14.73;;;;;;;1.75;100.00;97889.97;5014763;28;20033;-76
2021/12/16 04:27:48;;;;;;;31.97;14.63;;;;;;;1.71;100.00;97890.16;5018097;28;20025;-77
2021/12/16 04:30:16;;;;;;;27.37;14.37;;;;;;;1.71;100.00;97885.81;4992204;28;20025;-76
2021/12/16 04:32:45;;;;;;;34.33;18.20;;;;;;;1.74;100.00;97897.81;5004442;28;20060;-77
2021/12/16 04:35:12;;;;;;;31.10;17.03;;;;;;;1.73;100.00;97889.19;5017410;28;20076;-77
2021/12/16 04:37:39;;;;;;;29.80;15.67;;;;;;;1.72;100.00;97892.69;5014030;28;21011;-76
2021/12/16 04:40:09;;;;;;;34.07;16.53;;;;;;;1.68;100.00;97898.91;5004214;28;20029;-77
2021/12/16 04:42:38;;;;;;;29.33;14.43;;;;;;;1.69;100.00;97894.56;5012847;28;20037;-77
2021/12/16 04:45:08;;;;;;;24.50;13.47;;;;;;;1.73;100.00;97894.38;4984601;28;20033;-76
2021/12/16 04:47:37;;;;;;;23.80;13.20;;;;;;;1.70;100.00;97891.06;4995942;28;20041;-76
2021/12/16 04:50:04;;;;;;;24.23;13.13;;;;;;;1.69;100.00;97889.38;5006814;28;20091;-77
2021/12/16 04:52:30;;;;;;;29.63;14.80;;;;;;;1.73;100.00;97894.38;5001734;28;20049;-76
2021/12/16 04:54:56;;;;;;;25.13;15.13;;;;;;;1.80;100.00;97892.38;4999533;28;20033;-77
2021/12/16 04:57:22;;;;;;;27.07;15.03;;;;;;;1.76;100.00;97883.03;5006239;28;20032;-77
2021/12/16 04:59:48;;;;;;;27.47;15.50;;;;;;;1.72;100.00;97889.25;4997278;28;20514;-77
2021/12/16 05:02:18;;;;;;;24.67;13.37;;;;;;;1.68;100.00;97887.69;4994073;28;20033;-77
2021/12/16 05:04:57;;;;;;;24.63;13.13;;;;;;;1.69;100.00;97895.41;4991075;28;20034;-76
2021/12/16 05:07:23;;;;;;;32.07;15.37;;;;;;;1.68;100.00;97890.28;4998545;28;20498;-76
2021/12/16 05:10:24;;;;;;;31.47;14.03;;;;;;;1.66;100.00;97887.75;4947136;28;20047;-77
2021/12/16 05:13:03;;;;;;;33.90;15.67;;;;;;;1.66;100.00;97890.34;5004148;28;20041;-77
2021/12/16 05:15:34;;;;;;;28.10;15.17;;;;;;;1.65;100.00;97889.50;5002715;28;20116;-76
2021/12/16 05:18:06;;;;;;;29.73;15.33;;;;;;;1.73;100.00;97890.94;4998100;28;20036;-75
2021/12/16 05:20:41;;;;;;;31.30;14.90;;;;;;;1.68;100.00;97888.53;4988353;28;20025;-76
2021/12/16 05:28:23;;;;;;;28.57;14.70;;;;;;;1.68;100.00;97903.22;5011539;28;21167;-76
2021/12/16 05:30:51;;;;;;;30.70;14.63;;;;;;;1.67;100.00;97901.56;5012645;28;20060;-76
2021/12/16 05:33:19;;;;;;;34.97;16.60;;;;;;;1.75;100.00;97889.97;5028453;28;20026;-76
2021/12/16 05:35:45;;;;;;;31.13;16.60;;;;;;;1.69;100.00;97910.13;4991210;28;20568;-76
2021/12/16 05:38:11;;;;;;;31.63;15.03;;;;;;;1.73;100.00;97909.09;4977099;28;20139;-76
2021/12/16 05:40:39;;;;;;;33.43;16.87;;;;;;;1.72;100.00;97913.44;5014354;28;20419;-77
2021/12/16 05:43:15;;;;;;;33.13;16.10;;;;;;;1.72;100.00;97916.03;4992740;28;20036;-76
2021/12/16 05:45:43;;;;;;;28.83;16.40;;;;;;;1.71;100.00;97922.13;5004037;28;20037;-77
2021/12/16 05:48:12;;;;;;;33.60;16.20;;;;;;;1.69;100.00;97912.72;4991835;28;20801;-77
2021/12/16 05:50:43;;;;;;;32.73;15.20;;;;;;;1.68;100.00;97918.78;4988142;28;20025;-77
2021/12/16 05:53:10;;;;;;;28.83;14.43;;;;;;;1.70;100.00;97927.38;5009252;28;20491;-77
2021/12/16 05:55:37;;;;;;;29.67;15.03;;;;;;;1.72;100.00;97926.41;5011953;28;20032;-77
2021/12/16 05:58:18;;;;;;;32.07;15.20;;;;;;;1.75;100.00;97926.28;4990347;28;20040;-77
2021/12/16 06:00:50;;;;;;;29.33;15.53;;;;;;;1.78;100.00;97925.31;4988010;28;20053;-77
2021/12/16 06:03:16;;;;;;;31.53;16.57;;;;;;;1.72;100.00;97925.56;4992213;28;20041;-77
2021/12/16 06:05:43;;;;;;;31.33;15.30;;;;;;;1.75;100.00;97930.63;5013664;28;20028;-77
2021/12/16 06:08:10;;;;;;;32.43;17.00;;;;;;;1.72;100.00;97926.41;4997195;28;20032;-77
2021/12/16 06:13:25;;;;;;;289.57;178.43;;;;;;;2.02;100.00;97939.84;5021161;28;20404;-76
2021/12/16 06:26:55;;;;;;;24.47;13.80;;;;;;;1.79;100.00;97952.94;5016224;28;20469;-76
2021/12/16 06:29:23;;;;;;;27.23;13.90;;;;;;;1.75;100.00;97951.38;4992726;28;20508;-76
2021/12/16 06:31:50;;;;;;;25.10;13.93;;;;;;;1.76;100.00;97947.88;4992646;28;20080;-77
2021/12/16 06:34:16;;;;;;;27.47;13.63;;;;;;;1.75;100.00;97946.19;5024852;28;20454;-77
2021/12/16 06:36:42;;;;;;;23.50;14.27;;;;;;;1.78;100.00;97951.25;4983192;28;20116;-77
2021/12/16 06:39:10;;;;;;;26.07;13.93;;;;;;;1.76;100.00;97958.25;5006307;28;20040;-77
2021/12/16 06:41:39;;;;;;;28.83;15.70;;;;;;;1.75;100.00;97943.59;4991636;28;20041;-77
2021/12/16 06:44:24;;;;;;;26.30;14.33;;;;;;;1.75;100.00;97947.03;5010002;28;20478;-77
2021/12/16 06:46:56;;;;;;;26.97;14.67;;;;;;;1.73;100.00;97940.22;5010258;28;20021;-77
2021/12/16 06:49:23;;;;;;;24.57;13.43;;;;;;;1.74;100.00;97934.09;4989635;28;20033;-75
2021/12/16 06:51:56;;;;;;;27.23;15.00;;;;;;;1.69;100.00;97938.66;5007770;28;20025;-75
2021/12/16 06:54:27;;;;;;;27.63;14.90;;;;;;;1.73;100.00;97937.63;5016270;28;20655;-74
2021/12/16 06:59:24;;;;;;;26.53;14.83;;;;;;;1.71;100.00;97952.38;5021914;28;20719;-75
2021/12/16 07:02:10;;;;;;;29.23;16.37;;;;;;;1.69;100.00;97955.06;5018281;28;20671;-75
2021/12/16 07:04:37;;;;;;;29.50;15.07;;;;;;;1.67;100.00;97963.81;5002475;28;20038;-75
2021/12/16 07:07:06;;;;;;;25.87;15.70;;;;;;;1.67;100.00;97980.19;5003907;28;20037;-74
2021/12/16 07:09:32;;;;;;;30.47;14.53;;;;;;;1.68;100.00;97975.84;4997005;28;20055;-77
2021/12/16 07:12:00;;;;;;;31.73;14.50;;;;;;;1.65;100.00;97977.69;4990682;28;20438;-74
2021/12/16 07:14:39;;;;;;;26.97;13.80;;;;;;;1.73;100.00;97986.91;4990682;28;20041;-75
2021/12/16 07:17:14;;;;;;;29.77;14.13;;;;;;;1.69;100.00;97987.94;5003711;28;20029;-74
2021/12/16 07:19:41;;;;;;;28.13;15.10;;;;;;;1.71;100.00;97981.78;5016688;28;20048;-75
2021/12/16 07:22:08;;;;;;;28.77;14.20;;;;;;;1.70;100.00;97985.25;4982354;28;20029;-75
2021/12/16 07:24:34;;;;;;;29.80;14.03;;;;;;;1.69;100.00;97981.00;5005931;28;20033;-74
2021/12/16 07:27:01;;;;;;;35.80;20.17;;;;;;;1.67;100.00;97980.19;4992213;28;20072;-77
2021/12/16 07:29:27;;;;;;;32.30;14.77;;;;;;;1.71;100.00;97980.91;4996327;28;20033;-77
2021/12/16 07:31:54;;;;;;;26.77;14.23;;;;;;;1.67;100.00;97989.72;4997405;28;20037;-77
2021/12/16 07:34:21;;;;;;;25.10;13.93;;;;;;;1.70;100.00;97993.03;5001579;28;20042;-76
2021/12/16 07:36:48;;;;;;;26.73;13.63;;;;;;;1.74;100.00;97996.34;5009153;28;20083;-77
2021/12/16 07:39:17;;;;;;;28.67;15.27;;;;;;;1.75;100.00;97992.88;4991173;28;20497;-77
2021/12/16 07:41:47;;;;;;;26.33;14.83;;;;;;;1.77;100.00;98004.84;5010956;28;20043;-77
2021/12/16 07:44:15;;;;;;;27.33;14.37;;;;;;;1.83;100.00;98008.97;5003826;28;20038;-77
2021/12/16 07:46:40;;;;;;;25.37;13.30;;;;;;;1.81;100.00;98002.97;5016569;28;20028;-77
2021/12/16 07:49:09;;;;;;;27.90;13.20;;;;;;;1.76;100.00;98015.31;5006707;28;20057;-77
2021/12/16 07:51:36;;;;;;;29.67;15.57;;;;;;;1.75;100.00;98008.44;5011934;28;20036;-78
2021/12/16 07:54:04;;;;;;;29.07;16.00;;;;;;;1.83;100.00;98011.56;5015703;28;20037;-77
2021/12/16 07:56:31;;;;;;;29.77;16.57;;;;;;;1.81;100.00;98005.56;5017730;28;20054;-77
2021/12/16 07:58:56;;;;;;;27.30;15.30;;;;;;;1.84;100.00;98014.06;5023575;28;20636;-77
2021/12/16 08:01:24;;;;;;;30.57;17.00;;;;;;;1.81;100.00;98014.22;5014219;28;20038;-78
2021/12/16 08:03:50;;;;;;;30.50;17.50;;;;;;;1.84;100.00;98010.66;5020163;28;20112;-77
2021/12/16 08:06:22;;;;;;;28.00;16.00;;;;;;;1.80;100.00;98009.09;4995185;28;20037;-77
2021/12/16 08:08:56;;;;;;;25.57;16.00;;;;;;;1.79;100.00;98018.63;4994488;28;20566;-77
2021/12/16 08:11:23;;;;;;;25.17;14.70;;;;;;;1.83;100.00;98022.78;4983544;28;20111;-77
2021/12/16 08:13:50;;;;;;;26.10;14.63;;;;;;;1.82;100.00;98028.88;4992191;28;20133;-77
2021/12/16 08:16:16;;;;;;;26.97;15.17;;;;;;;1.81;100.00;98028.91;5006593;28;20113;-77
2021/12/16 08:18:42;;;;;;;29.23;16.33;;;;;;;1.85;100.00;98040.88;5006091;28;20479;-77
2021/12/16 08:21:08;;;;;;;29.57;16.70;;;;;;;1.81;100.00;98032.38;4997228;28;20024;-77
2021/12/16 08:23:35;;;;;;;27.57;15.83;;;;;;;1.88;100.00;98043.38;5008719;28;20575;-77
2021/12/16 08:26:02;;;;;;;27.03;14.30;;;;;;;1.92;100.00;98049.28;5006428;28;20033;-77
2021/12/16 08:28:30;;;;;;;24.10;13.23;;;;;;;1.93;100.00;98041.41;4999148;28;20037;-77
2021/12/16 08:30:56;;;;;;;28.53;14.90;;;;;;;1.96;100.00;98059.47;5016901;28;20156;-77
2021/12/16 08:33:22;;;;;;;26.37;14.37;;;;;;;2.02;100.00;98059.22;5015981;28;20029;-76
2021/12/16 08:35:53;;;;;;;25.80;13.53;;;;;;;1.98;100.00;98059.38;5009936;28;20041;-76
2021/12/16 08:38:22;;;;;;;28.73;14.60;;;;;;;2.03;100.00;98060.06;5007514;28;20048;-77
2021/12/16 08:40:52;;;;;;;27.40;14.73;;;;;;;2.03;100.00;98060.91;5016312;28;20029;-77
2021/12/16 08:43:19;;;;;;;24.33;13.60;;;;;;;2.01;100.00;98062.72;5012560;28;20042;-77
2021/12/16 08:45:45;;;;;;;25.47;14.00;;;;;;;2.11;100.00;98066.63;4992939;28;20089;-77
2021/12/16 08:48:14;;;;;;;25.63;13.67;;;;;;;2.13;100.00;98070.00;4999966;28;20037;-78
2021/12/16 08:50:45;;;;;;;26.53;13.73;;;;;;;2.12;100.00;98065.72;4992563;28;20030;-76
2021/12/16 08:53:13;;;;;;;22.13;13.23;;;;;;;2.11;100.00;98064.03;4996572;28;20495;-77
2021/12/16 08:55:41;;;;;;;20.80;11.50;;;;;;;2.15;100.00;98069.97;4988190;28;20052;-77
2021/12/16 08:58:06;;;;;;;24.03;12.90;;;;;;;2.19;100.00;98071.50;5004397;28;20029;-77
2021/12/16 09:00:40;;;;;;;22.13;13.27;;;;;;;2.19;100.00;98066.31;5014818;28;20033;-77
2021/12/16 09:03:07;;;;;;;24.40;13.17;;;;;;;2.21;100.00;98071.44;5012681;28;20043;-77
2021/12/16 09:05:34;;;;;;;24.30;13.40;;;;;;;2.28;100.00;98071.16;5008662;28;20030;-77
2021/12/16 09:08:00;;;;;;;23.77;13.37;;;;;;;2.29;100.00;98072.81;5004660;28;20040;-77
2021/12/16 09:10:31;;;;;;;24.03;12.90;;;;;;;2.28;100.00;98078.06;5005695;28;20643;-77
2021/12/16 09:13:04;;;;;;;22.07;12.07;;;;;;;2.35;100.00;98085.56;5031740;28;20034;-77
2021/12/16 09:15:35;;;;;;;26.53;14.37;;;;;;;2.35;100.00;98082.13;5001876;28;20037;-76
2021/12/16 09:18:02;;;;;;;25.40;14.07;;;;;;;2.36;100.00;98083.81;5003769;28;20507;-77
2021/12/16 09:20:29;;;;;;;24.53;12.13;;;;;;;2.34;100.00;98083.00;4994978;28;20041;-77
2021/12/16 09:22:56;;;;;;;22.27;11.73;;;;;;;2.38;100.00;98096.72;5006285;28;20049;-77
2021/12/16 09:25:22;;;;;;;21.77;12.40;;;;;;;2.39;100.00;98093.22;5001141;28;20514;-76
2021/12/16 09:27:49;;;;;;;19.97;11.73;;;;;;;2.45;100.00;98096.41;5015156;28;20125;-77
2021/12/16 09:30:19;;;;;;;20.90;11.13;;;;;;;2.40;100.00;98102.69;5010611;28;20132;-77
2021/12/16 09:32:46;;;;;;;19.57;10.87;;;;;;;2.38;100.00;98101.91;5002099;28;20029;-77
2021/12/16 09:35:13;;;;;;;21.20;12.20;;;;;;;2.38;100.00;98097.53;5017960;28;20033;-76
2021/12/16 09:37:39;;;;;;;19.97;10.80;;;;;;;2.44;100.00;98097.31;4977139;28;20049;-77
2021/12/16 09:40:20;;;;;;;18.83;11.30;;;;;;;2.51;100.00;98106.53;4995953;28;20043;-76
2021/12/16 09:42:47;;;;;;;19.53;10.87;;;;;;;2.54;100.00;98109.00;4991618;28;20048;-77
2021/12/16 09:45:15;;;;;;;20.93;12.23;;;;;;;2.51;100.00;98101.31;4997205;28;20025;-77
2021/12/16 09:47:43;;;;;;;21.30;11.93;;;;;;;2.58;100.00;98107.97;5038665;28;20104;-77
2021/12/16 09:50:13;;;;;;;20.53;11.67;;;;;;;2.50;100.00;98107.44;5008925;28;20099;-77
2021/12/16 09:52:38;;;;;;;19.80;11.23;;;;;;;2.50;100.00;98104.84;4998061;28;20423;-77
2021/12/16 09:55:06;;;;;;;21.20;11.60;;;;;;;2.41;100.00;98094.00;5006817;28;20025;-77
2021/12/16 09:57:33;;;;;;;23.50;13.50;;;;;;;2.54;100.00;98097.75;5034988;28;20037;-76
2021/12/16 09:59:59;;;;;;;22.80;12.30;;;;;;;2.54;100.00;98090.81;4987430;28;20045;-77
2021/12/16 10:02:25;;;;;;;21.33;12.00;;;;;;;2.55;100.00;98102.91;5008681;28;20120;-77
2021/12/16 10:04:51;;;;;;;23.30;13.37;;;;;;;2.57;100.00;98095.88;5014789;28;20091;-77
2021/12/16 10:07:26;;;;;;;22.40;11.67;;;;;;;2.56;100.00;98091.59;5026726;28;20064;-77
2021/12/16 10:09:55;;;;;;;20.27;11.37;;;;;;;2.58;100.00;98105.38;5015378;28;20483;-77
2021/12/16 10:12:26;;;;;;;21.73;11.40;;;;;;;2.60;100.00;98103.56;5018858;28;20487;-77
2021/12/16 10:17:26;;;;;;;24.20;13.30;;;;;;;2.68;100.00;98099.78;5003675;28;20042;-77
2021/12/16 10:19:54;;;;;;;21.85;12.95;;;;;;;2.70;100.00;98097.97;5007304;28;20048;-77
2021/12/16 10:22:20;;;;;;;20.30;12.27;;;;;;;2.72;100.00;98096.16;5019072;28;20433;-77
2021/12/16 10:24:48;;;;;;;19.80;11.83;;;;;;;2.69;100.00;98096.28;4990242;28;20041;-77
2021/12/16 10:27:17;;;;;;;21.87;11.93;;;;;;;2.74;100.00;98104.72;5027285;28;20032;-77
2021/12/16 10:29:51;;;;;;;20.70;11.93;;;;;;;2.79;100.00;98092.41;4994641;28;20295;-77
2021/12/16 10:32:35;;;;;;;22.63;13.75;;;;;;;2.84;100.00;98093.03;5024977;28;21116;-76
2021/12/16 10:35:09;;;;;;;20.30;11.43;;;;;;;2.83;100.00;98089.59;5022665;28;20068;-77
2021/12/16 10:37:40;;;;;;;21.10;12.57;;;;;;;2.81;100.00;98082.78;5028328;28;20376;-77
2021/12/16 10:40:33;;;;;;;22.77;12.17;;;;;;;2.83;100.00;98080.97;4996888;28;20707;-77
2021/12/16 10:43:05;;;;;;;25.43;14.03;;;;;;;2.86;100.00;98086.03;5006917;28;20029;-77
2021/12/16 10:45:36;;;;;;;24.50;12.80;;;;;;;2.93;100.00;98079.66;5007725;28;20191;-77
2021/12/16 10:48:24;;;;;;;22.17;12.17;;;;;;;2.98;100.00;98076.84;5019301;28;20126;-77
2021/12/16 10:51:00;;;;;;;21.27;12.80;;;;;;;2.96;100.00;98074.31;5009844;28;20059;-77
2021/12/16 10:53:50;;;;;;;22.33;12.87;;;;;;;3.04;100.00;98074.81;4994091;28;20033;-77
2021/12/16 10:56:19;;;;;;;24.27;13.10;;;;;;;3.08;100.00;98078.13;5005705;28;20032;-76
2021/12/16 10:59:00;;;;;;;27.10;13.37;;;;;;;3.52;100.00;98080.47;5017056;28;20405;-77
2021/12/16 11:01:43;;;;;;;23.27;13.07;;;;;;;3.26;100.00;98076.47;4999576;28;20057;-77
2021/12/16 11:04:22;;;;;;;21.08;11.13;;;;;;;3.30;100.00;98080.63;5008950;28;20041;-77
2021/12/16 11:06:50;;;;;;;22.43;11.97;;;;;;;3.09;100.00;98079.84;5003398;28;20043;-76
2021/12/16 11:09:30;;;;;;;19.73;11.03;;;;;;;3.09;100.00;98089.38;5006393;28;20040;-77
2021/12/16 11:12:30;;;;;;;19.87;11.70;;;;;;;3.03;100.00;98096.53;5004715;28;20041;-77
2021/12/16 11:15:14;;;;;;;23.63;13.53;;;;;;;3.10;100.00;98091.91;4973971;28;20045;-77
2021/12/16 11:17:51;;;;;;;21.97;13.30;;;;;;;3.19;100.00;98080.28;4989893;28;20101;-76
2021/12/16 11:20:35;;;;;;;25.93;13.23;;;;;;;3.24;100.00;98080.91;4990645;28;20033;-76
2021/12/16 11:23:13;;;;;;;;;;;;;;;3.22;100.00;98080.09;4990960;28;20036;-77
2021/12/16 11:25:41;;;;;;;22.97;12.53;;;;;;;3.23;100.00;98074.84;5031234;28;19971;-78
2021/12/16 11:28:18;;;;;;;19.43;11.60;;;;;;;3.28;100.00;98072.88;5016498;28;20037;-76
2021/12/16 11:30:47;;;;;;;20.63;11.53;;;;;;;3.34;100.00;98078.72;5010133;28;20615;-77
2021/12/16 11:33:19;;;;;;;20.50;10.80;;;;;;;3.24;100.00;98073.94;4987183;28;20096;-77
2021/12/16 11:35:55;;;;;;;20.23;12.00;;;;;;;3.26;100.00;98071.28;5027344;28;20037;-76
2021/12/16 11:38:23;;;;;;;19.30;11.33;;;;;;;3.28;100.00;98074.63;5016478;28;20040;-76
2021/12/16 11:40:58;;;;;;;18.93;10.63;;;;;;;3.26;100.00;98068.69;5014625;28;20519;-77
2021/12/16 11:43:54;;;;;;;23.47;13.57;;;;;;;3.41;100.00;98073.16;5024110;28;20418;-77
2021/12/16 11:46:41;;;;;;;21.17;12.57;;;;;;;3.36;100.00;98079.50;4983673;28;20660;-79
2021/12/16 11:49:39;;;;;;;21.37;12.83;;;;;;;3.43;100.00;98079.16;5007880;28;20125;-76
2021/12/16 11:52:10;;;;;;;20.70;12.83;;;;;;;3.50;100.00;98085.75;5004258;28;20044;-76
2021/12/16 11:55:03;;;;;;;21.97;12.37;;;;;;;3.47;100.00;98079.84;4994566;28;20030;-77
2021/12/16 11:57:34;;;;;;;23.43;13.23;;;;;;;3.48;100.00;98077.19;5005977;28;20057;-76
2021/12/16 12:00:13;;;;;;;19.33;11.67;;;;;;;3.39;100.00;98072.41;5008944;28;20406;-77
2021/12/16 12:02:43;;;;;;;19.57;11.70;;;;;;;3.43;100.00;98076.56;5006568;28;20637;-79
2021/12/16 12:05:30;;;;;;;20.50;12.60;;;;;;;3.44;100.00;98080.00;5010287;28;20097;-76
2021/12/16 12:08:20;;;;;;;18.37;11.63;;;;;;;3.47;100.00;98072.91;4985816;28;20600;-77
2021/12/16 12:11:06;;;;;;;19.43;11.90;;;;;;;3.47;100.00;98075.50;5002683;28;20052;-77
2021/12/16 12:13:42;;;;;;;24.13;13.47;;;;;;;3.38;100.00;98073.31;4986609;28;20479;-77
2021/12/16 12:16:10;;;;;;;23.23;13.37;;;;;;;3.41;100.00;98070.56;5024385;28;20570;-77
2021/12/16 12:18:41;;;;;;;20.57;12.40;;;;;;;3.43;100.00;98068.75;5020682;28;20043;-77
2021/12/16 12:21:29;;;;;;;21.00;13.13;;;;;;;3.53;100.00;98064.81;4990742;28;20402;-77
2021/12/16 12:24:26;;;;;;;20.90;12.87;;;;;;;3.69;100.00;98064.09;5010292;28;20037;-77
2021/12/16 12:26:56;;;;;;;20.23;11.93;;;;;;;3.57;100.00;98059.47;5029774;28;20033;-77
2021/12/16 12:29:25;;;;;;;19.77;11.93;;;;;;;3.64;100.00;98053.06;5008498;28;20633;-77
2021/12/16 12:31:54;;;;;;;21.43;11.27;;;;;;;3.61;100.00;98061.84;5008885;28;20466;-77
2021/12/16 12:34:21;;;;;;;18.50;11.20;;;;;;;3.58;100.00;98061.16;5013120;28;20751;-77
2021/12/16 12:36:50;;;;;;;17.03;10.20;;;;;;;3.62;100.00;98058.34;4996446;28;20057;-77
2021/12/16 12:39:20;;;;;;;19.07;12.33;;;;;;;3.74;100.00;98049.97;5022387;28;20457;-78
2021/12/16 12:41:47;;;;;;;17.70;10.77;;;;;;;3.75;100.00;98053.41;5023492;28;20038;-76
2021/12/16 12:44:15;;;;;;;18.93;11.40;;;;;;;3.67;100.00;98050.31;5017140;28;20025;-77
2021/12/16 12:46:43;;;;;;;18.70;10.50;;;;;;;3.80;100.00;98048.00;4996257;28;20172;-77
2021/12/16 12:49:13;;;;;;;20.13;12.27;;;;;;;3.79;100.00;98049.75;5002475;28;20053;-77
2021/12/16 12:51:42;;;;;;;18.87;11.50;;;;;;;3.90;100.00;98050.09;5041479;28;20028;-76
2021/12/16 12:54:28;;;;;;;19.40;11.13;;;;;;;3.99;100.00;98048.78;5038541;28;20037;-76
2021/12/16 12:56:57;;;;;;;18.10;11.13;;;;;;;3.94;100.00;98046.41;5004633;28;20044;-75
2021/12/16 12:59:38;;;;;;;19.57;11.37;;;;;;;4.14;100.00;98048.03;4983501;28;20033;-75
2021/12/16 13:02:20;;;;;;;21.20;13.20;;;;;;;4.16;100.00;98046.22;5007287;28;20029;-75
2021/12/16 13:04:58;;;;;;;19.33;12.33;;;;;;;4.21;100.00;98051.19;5001332;28;20628;-75
2021/12/16 13:07:38;;;;;;;20.77;11.57;;;;;;;4.28;100.00;98052.56;5023286;28;20075;-76
2021/12/16 13:10:17;;;;;;;19.47;11.63;;;;;;;4.37;100.00;98053.91;4990452;28;20824;-75
2021/12/16 13:24:19;;;;;;;19.37;12.87;;;;;;;4.74;100.00;98055.50;4972353;28;20048;-76
2021/12/16 13:29:52;;;;;;;16.13;9.80;;;;;;;4.69;100.00;98065.28;5011070;28;20029;-76
2021/12/16 13:32:29;;;;;;;17.83;10.27;;;;;;;4.80;100.00;98060.41;4994504;28;20038;-76
2021/12/16 13:35:12;;;;;;;18.53;10.77;;;;;;;4.52;100.00;98062.69;4993994;28;20044;-76
2021/12/16 13:37:42;;;;;;;14.83;9.13;;;;;;;4.57;100.00;98068.53;4987516;28;20044;-76
2021/12/16 13:40:28;;;;;;;15.67;9.70;;;;;;;4.69;100.00;98062.69;5035197;28;20039;-76
2021/12/16 13:43:03;;;;;;;18.23;10.83;;;;;;;4.51;100.00;98066.22;5007259;28;20033;-76
2021/12/16 13:45:38;;;;;;;16.20;10.00;;;;;;;4.35;100.00;98056.56;5007543;28;21908;-76
2021/12/16 13:58:09;;;;;;;19.77;11.77;;;;;;;4.44;100.00;98058.72;4988910;28;20049;-76
2021/12/16 14:07:58;;;;;;;18.13;10.10;;;;;;;4.33;100.00;98074.03;5014199;28;20033;-76
2021/12/16 14:10:48;;;;;;;18.23;11.27;;;;;;;4.36;100.00;98068.69;4994437;28;20740;-76
2021/12/16 14:17:10;;;;;;;19.97;11.47;;;;;;;4.40;100.00;98088.44;5023793;28;20429;-76
2021/12/16 14:37:13;;;;;;;18.33;11.50;;;;;;;4.39;100.00;98094.59;5010845;28;20430;-76
2021/12/16 14:45:58;;;;;;;18.10;12.03;;;;;;;4.20;100.00;98101.59;5022476;28;20037;-76
2021/12/16 14:48:26;;;;;;;19.60;10.73;;;;;;;4.13;100.00;98100.22;4997749;28;20045;-76
2021/12/16 14:51:03;;;;;;;20.03;12.13;;;;;;;4.23;100.00;98109.28;4990849;28;20056;-77
2021/12/16 14:53:35;;;;;;;17.37;11.07;;;;;;;4.14;100.00;98110.53;5015986;28;20025;-76
2021/12/16 14:56:04;;;;;;;23.30;13.50;;;;;;;3.91;100.00;98106.41;5003034;28;20033;-77
2021/12/16 14:58:30;;;;;;;21.77;12.97;;;;;;;4.02;100.00;98098.09;5014210;28;20368;-76